sensor_id;sensor_type;location;lat;lon;timestamp;temperature;humidity
14884;DHT22;7534;50.762;7.000;2023-05-07T00:01:17;15.40;99.90
14884;DHT22;7534;50.762;7.000;2023-05-07T00:03:43;15.30;99.90
14884;DHT22;7534;50.762;7.000;2023-05-07T00:06:09;15.20;99.90
14884;DHT22;7534;50.762;7.000;2023-05-07T00:08:38;15.10;99.90
14884;DHT22;7534;50.762;7.000;2023-05-07T00:11:04;15.20;99.90
14884;DHT22;7534;50.762;7.000;2023-05-07T00:13:30;15.20;99.90
14884;DHT22;7534;50.762;7.000;2023-05-07T00:16:01;15.20;99.90
14884;DHT22;7534;50.762;7.000;2023-05-07T00:18:27;15.20;99.90
14884;DHT22;7534;50.762;7.000;2023-05-07T00:20:53;15.20;99.90
14884;DHT22;7534;50.762;7.000;2023-05-07T00:23:19;15.20;99.90
14884;DHT22;7534;50.762;7.000;2023-05-07T00:25:44;15.10;99.90
14884;DHT22;7534;50.762;7.000;2023-05-07T00:28:10;15.00;99.90
14884;DHT22;7534;50.762;7.000;2023-05-07T00:30:36;15.00;99.90
14884;DHT22;7534;50.762;7.000;2023-05-07T00:33:02;15.00;99.90
14884;DHT22;7534;50.762;7.000;2023-05-07T00:35:28;15.00;99.90
14884;DHT22;7534;50.762;7.000;2023-05-07T00:37:55;15.10;99.90
14884;DHT22;7534;50.762;7.000;2023-05-07T00:40:21;15.20;99.90
14884;DHT22;7534;50.762;7.000;2023-05-07T00:42:48;15.20;99.90
14884;DHT22;7534;50.762;7.000;2023-05-07T00:45:14;15.30;99.90
14884;DHT22;7534;50.762;7.000;2023-05-07T00:47:41;15.40;99.90
14884;DHT22;7534;50.762;7.000;2023-05-07T00:50:08;15.40;99.90
14884;DHT22;7534;50.762;7.000;2023-05-07T00:52:36;15.40;99.90
14884;DHT22;7534;50.762;7.000;2023-05-07T00:55:05;15.50;99.90
14884;DHT22;7534;50.762;7.000;2023-05-07T00:57:37;15.40;99.90
14884;DHT22;7534;50.762;7.000;2023-05-07T01:00:15;15.40;99.90
14884;DHT22;7534;50.762;7.000;2023-05-07T01:02:43;15.50;99.90
14884;DHT22;7534;50.762;7.000;2023-05-07T01:05:12;15.50;99.90
14884;DHT22;7534;50.762;7.000;2023-05-07T01:07:42;15.40;99.90
14884;DHT22;7534;50.762;7.000;2023-05-07T01:10:08;15.40;99.90
14884;DHT22;7534;50.762;7.000;2023-05-07T01:12:37;15.50;99.90
14884;DHT22;7534;50.762;7.000;2023-05-07T01:15:06;15.50;99.90
14884;DHT22;7534;50.762;7.000;2023-05-07T01:17:34;15.40;99.90
14884;DHT22;7534;50.762;7.000;2023-05-07T01:20:06;15.40;99.90
14884;DHT22;7534;50.762;7.000;2023-05-07T01:22:37;15.40;99.90
14884;DHT22;7534;50.762;7.000;2023-05-07T01:25:04;15.40;99.90
14884;DHT22;7534;50.762;7.000;2023-05-07T01:27:31;15.40;99.90
14884;DHT22;7534;50.762;7.000;2023-05-07T01:29:59;15.40;99.90
14884;DHT22;7534;50.762;7.000;2023-05-07T01:32:35;15.30;99.90
14884;DHT22;7534;50.762;7.000;2023-05-07T01:35:09;15.20;99.90
14884;DHT22;7534;50.762;7.000;2023-05-07T01:37:38;15.20;99.90
14884;DHT22;7534;50.762;7.000;2023-05-07T01:40:05;15.30;99.90
14884;DHT22;7534;50.762;7.000;2023-05-07T01:42:32;15.30;99.90
14884;DHT22;7534;50.762;7.000;2023-05-07T01:44:58;15.30;99.90
14884;DHT22;7534;50.762;7.000;2023-05-07T01:47:25;15.30;99.90
14884;DHT22;7534;50.762;7.000;2023-05-07T01:49:52;15.30;99.90
14884;DHT22;7534;50.762;7.000;2023-05-07T01:52:19;15.30;99.90
14884;DHT22;7534;50.762;7.000;2023-05-07T01:54:45;15.20;99.90
14884;DHT22;7534;50.762;7.000;2023-05-07T01:57:10;15.20;99.90
14884;DHT22;7534;50.762;7.000;2023-05-07T01:59:36;15.10;99.90
14884;DHT22;7534;50.762;7.000;2023-05-07T02:02:02;15.10;99.90
14884;DHT22;7534;50.762;7.000;2023-05-07T02:04:28;15.10;99.90
14884;DHT22;7534;50.762;7.000;2023-05-07T02:06:54;15.10;99.90
14884;DHT22;7534;50.762;7.000;2023-05-07T02:09:21;15.00;99.90
14884;DHT22;7534;50.762;7.000;2023-05-07T02:11:48;15.00;99.90
14884;DHT22;7534;50.762;7.000;2023-05-07T02:14:14;14.90;99.90
14884;DHT22;7534;50.762;7.000;2023-05-07T02:16:40;14.90;99.90
14884;DHT22;7534;50.762;7.000;2023-05-07T02:19:13;14.90;99.90
14884;DHT22;7534;50.762;7.000;2023-05-07T02:21:38;14.90;99.90
14884;DHT22;7534;50.762;7.000;2023-05-07T02:24:04;14.80;99.90
14884;DHT22;7534;50.762;7.000;2023-05-07T02:26:30;14.80;99.90
14884;DHT22;7534;50.762;7.000;2023-05-07T02:28:56;14.70;99.90
14884;DHT22;7534;50.762;7.000;2023-05-07T02:31:22;14.80;99.90
14884;DHT22;7534;50.762;7.000;2023-05-07T02:33:47;14.70;99.90
14884;DHT22;7534;50.762;7.000;2023-05-07T02:36:13;14.60;99.90
14884;DHT22;7534;50.762;7.000;2023-05-07T02:38:39;14.80;99.90
14884;DHT22;7534;50.762;7.000;2023-05-07T02:41:04;14.60;99.90
14884;DHT22;7534;50.762;7.000;2023-05-07T02:43:30;14.70;99.90
14884;DHT22;7534;50.762;7.000;2023-05-07T02:46:07;14.60;99.90
14884;DHT22;7534;50.762;7.000;2023-05-07T02:48:34;14.60;99.90
14884;DHT22;7534;50.762;7.000;2023-05-07T02:51:01;14.60;99.90
14884;DHT22;7534;50.762;7.000;2023-05-07T02:53:28;14.70;99.90
14884;DHT22;7534;50.762;7.000;2023-05-07T02:55:59;14.80;99.90
14884;DHT22;7534;50.762;7.000;2023-05-07T02:58:27;14.80;99.90
14884;DHT22;7534;50.762;7.000;2023-05-07T03:00:53;14.90;99.90
14884;DHT22;7534;50.762;7.000;2023-05-07T03:03:22;14.90;99.90
14884;DHT22;7534;50.762;7.000;2023-05-07T03:05:48;14.70;99.90
14884;DHT22;7534;50.762;7.000;2023-05-07T03:08:14;14.80;99.90
14884;DHT22;7534;50.762;7.000;2023-05-07T03:10:39;14.90;99.90
14884;DHT22;7534;50.762;7.000;2023-05-07T03:13:05;14.90;99.90
14884;DHT22;7534;50.762;7.000;2023-05-07T03:15:31;14.90;99.90
14884;DHT22;7534;50.762;7.000;2023-05-07T03:17:56;14.90;99.90
14884;DHT22;7534;50.762;7.000;2023-05-07T03:20:22;14.90;99.90
14884;DHT22;7534;50.762;7.000;2023-05-07T03:22:48;14.90;99.90
14884;DHT22;7534;50.762;7.000;2023-05-07T03:25:14;14.90;99.90
14884;DHT22;7534;50.762;7.000;2023-05-07T03:27:40;14.90;99.90
14884;DHT22;7534;50.762;7.000;2023-05-07T03:30:07;14.90;99.90
14884;DHT22;7534;50.762;7.000;2023-05-07T03:32:34;14.90;99.90
14884;DHT22;7534;50.762;7.000;2023-05-07T03:35:01;14.90;99.90
14884;DHT22;7534;50.762;7.000;2023-05-07T03:37:27;14.80;99.90
14884;DHT22;7534;50.762;7.000;2023-05-07T03:39:53;14.80;99.90
14884;DHT22;7534;50.762;7.000;2023-05-07T03:42:19;14.80;99.90
14884;DHT22;7534;50.762;7.000;2023-05-07T03:44:45;14.70;99.90
14884;DHT22;7534;50.762;7.000;2023-05-07T03:47:10;14.70;99.90
14884;DHT22;7534;50.762;7.000;2023-05-07T03:49:36;14.70;99.90
14884;DHT22;7534;50.762;7.000;2023-05-07T03:52:02;14.70;99.90
14884;DHT22;7534;50.762;7.000;2023-05-07T03:54:28;14.80;99.90
14884;DHT22;7534;50.762;7.000;2023-05-07T03:56:53;14.80;99.90
14884;DHT22;7534;50.762;7.000;2023-05-07T03:59:19;14.80;99.90
14884;DHT22;7534;50.762;7.000;2023-05-07T04:01:45;14.80;99.90
14884;DHT22;7534;50.762;7.000;2023-05-07T04:04:11;14.90;99.90
14884;DHT22;7534;50.762;7.000;2023-05-07T04:06:37;14.90;99.90
14884;DHT22;7534;50.762;7.000;2023-05-07T04:09:02;14.90;99.90
14884;DHT22;7534;50.762;7.000;2023-05-07T04:11:28;14.90;99.90
14884;DHT22;7534;50.762;7.000;2023-05-07T04:13:54;14.90;99.90
14884;DHT22;7534;50.762;7.000;2023-05-07T04:16:20;15.00;99.90
14884;DHT22;7534;50.762;7.000;2023-05-07T04:18:46;15.00;99.90
14884;DHT22;7534;50.762;7.000;2023-05-07T04:21:19;15.10;99.90
14884;DHT22;7534;50.762;7.000;2023-05-07T04:23:46;15.10;99.90
14884;DHT22;7534;50.762;7.000;2023-05-07T04:26:13;15.20;99.90
14884;DHT22;7534;50.762;7.000;2023-05-07T04:28:40;15.20;99.90
14884;DHT22;7534;50.762;7.000;2023-05-07T04:31:06;15.30;99.90
14884;DHT22;7534;50.762;7.000;2023-05-07T04:33:32;15.30;99.90
14884;DHT22;7534;50.762;7.000;2023-05-07T04:36:02;15.40;99.90
14884;DHT22;7534;50.762;7.000;2023-05-07T04:38:30;15.40;99.90
14884;DHT22;7534;50.762;7.000;2023-05-07T04:40:57;15.50;99.90
14884;DHT22;7534;50.762;7.000;2023-05-07T04:43:27;15.50;99.90
14884;DHT22;7534;50.762;7.000;2023-05-07T04:45:53;15.40;99.90
14884;DHT22;7534;50.762;7.000;2023-05-07T04:48:18;15.30;99.90
14884;DHT22;7534;50.762;7.000;2023-05-07T04:50:49;15.20;99.90
14884;DHT22;7534;50.762;7.000;2023-05-07T04:53:15;15.00;99.90
14884;DHT22;7534;50.762;7.000;2023-05-07T04:55:42;15.00;99.90
14884;DHT22;7534;50.762;7.000;2023-05-07T04:58:08;15.00;99.90
14884;DHT22;7534;50.762;7.000;2023-05-07T05:00:34;15.00;99.90
14884;DHT22;7534;50.762;7.000;2023-05-07T05:03:00;14.90;99.90
14884;DHT22;7534;50.762;7.000;2023-05-07T05:05:25;15.00;99.90
14884;DHT22;7534;50.762;7.000;2023-05-07T05:07:51;15.10;99.90
14884;DHT22;7534;50.762;7.000;2023-05-07T05:10:17;15.20;99.90
14884;DHT22;7534;50.762;7.000;2023-05-07T05:12:43;15.30;99.90
14884;DHT22;7534;50.762;7.000;2023-05-07T05:15:11;15.50;99.90
14884;DHT22;7534;50.762;7.000;2023-05-07T05:17:38;15.60;99.90
14884;DHT22;7534;50.762;7.000;2023-05-07T05:20:05;15.70;99.90
14884;DHT22;7534;50.762;7.000;2023-05-07T05:22:31;15.90;99.90
14884;DHT22;7534;50.762;7.000;2023-05-07T05:24:58;16.10;99.90
14884;DHT22;7534;50.762;7.000;2023-05-07T05:27:24;16.30;99.90
14884;DHT22;7534;50.762;7.000;2023-05-07T05:29:49;16.40;99.90
14884;DHT22;7534;50.762;7.000;2023-05-07T05:32:15;16.50;99.90
14884;DHT22;7534;50.762;7.000;2023-05-07T05:34:41;16.50;99.90
14884;DHT22;7534;50.762;7.000;2023-05-07T05:37:07;16.60;99.90
14884;DHT22;7534;50.762;7.000;2023-05-07T05:39:32;16.60;99.90
14884;DHT22;7534;50.762;7.000;2023-05-07T05:41:58;16.50;99.90
14884;DHT22;7534;50.762;7.000;2023-05-07T05:44:24;16.60;99.90
14884;DHT22;7534;50.762;7.000;2023-05-07T05:46:50;16.50;99.90
14884;DHT22;7534;50.762;7.000;2023-05-07T05:49:16;16.50;99.90
14884;DHT22;7534;50.762;7.000;2023-05-07T05:51:42;16.60;99.90
14884;DHT22;7534;50.762;7.000;2023-05-07T05:54:08;16.80;99.90
14884;DHT22;7534;50.762;7.000;2023-05-07T05:56:34;16.90;99.90
14884;DHT22;7534;50.762;7.000;2023-05-07T05:59:10;17.10;99.90
14884;DHT22;7534;50.762;7.000;2023-05-07T06:01:43;17.30;99.90
14884;DHT22;7534;50.762;7.000;2023-05-07T06:04:09;17.40;99.90
14884;DHT22;7534;50.762;7.000;2023-05-07T06:06:34;17.60;99.90
14884;DHT22;7534;50.762;7.000;2023-05-07T06:09:01;18.00;99.90
14884;DHT22;7534;50.762;7.000;2023-05-07T06:11:28;18.30;99.90
14884;DHT22;7534;50.762;7.000;2023-05-07T06:13:53;18.90;99.90
14884;DHT22;7534;50.762;7.000;2023-05-07T06:16:19;19.30;99.90
14884;DHT22;7534;50.762;7.000;2023-05-07T06:18:45;19.50;99.90
14884;DHT22;7534;50.762;7.000;2023-05-07T06:21:12;19.80;99.90
14884;DHT22;7534;50.762;7.000;2023-05-07T06:23:38;20.20;99.90
14884;DHT22;7534;50.762;7.000;2023-05-07T06:26:06;20.30;99.90
14884;DHT22;7534;50.762;7.000;2023-05-07T06:28:32;20.00;99.90
14884;DHT22;7534;50.762;7.000;2023-05-07T06:31:18;20.50;99.90
14884;DHT22;7534;50.762;7.000;2023-05-07T06:33:48;20.50;99.90
14884;DHT22;7534;50.762;7.000;2023-05-07T06:36:14;20.70;99.90
14884;DHT22;7534;50.762;7.000;2023-05-07T06:38:41;20.60;99.90
14884;DHT22;7534;50.762;7.000;2023-05-07T06:41:06;20.50;99.90
14884;DHT22;7534;50.762;7.000;2023-05-07T06:43:33;20.60;99.90
14884;DHT22;7534;50.762;7.000;2023-05-07T06:45:58;20.70;99.90
14884;DHT22;7534;50.762;7.000;2023-05-07T06:48:24;20.80;99.90
14884;DHT22;7534;50.762;7.000;2023-05-07T06:50:50;20.90;99.90
14884;DHT22;7534;50.762;7.000;2023-05-07T06:53:35;21.00;99.90
14884;DHT22;7534;50.762;7.000;2023-05-07T06:56:03;21.10;99.90
14884;DHT22;7534;50.762;7.000;2023-05-07T06:58:29;21.20;99.90
14884;DHT22;7534;50.762;7.000;2023-05-07T07:00:55;21.10;99.80
14884;DHT22;7534;50.762;7.000;2023-05-07T07:03:21;21.80;99.00
14884;DHT22;7534;50.762;7.000;2023-05-07T07:05:46;22.30;97.50
14884;DHT22;7534;50.762;7.000;2023-05-07T07:08:12;22.40;97.80
14884;DHT22;7534;50.762;7.000;2023-05-07T07:10:38;22.70;96.90
14884;DHT22;7534;50.762;7.000;2023-05-07T07:13:04;23.10;96.80
14884;DHT22;7534;50.762;7.000;2023-05-07T07:15:29;23.20;96.10
14884;DHT22;7534;50.762;7.000;2023-05-07T07:17:55;23.00;95.00
14884;DHT22;7534;50.762;7.000;2023-05-07T07:20:21;22.70;95.80
14884;DHT22;7534;50.762;7.000;2023-05-07T07:22:47;22.50;96.30
14884;DHT22;7534;50.762;7.000;2023-05-07T07:25:12;22.50;96.90
14884;DHT22;7534;50.762;7.000;2023-05-07T07:27:38;22.70;96.80
14884;DHT22;7534;50.762;7.000;2023-05-07T07:30:05;22.80;95.70
14884;DHT22;7534;50.762;7.000;2023-05-07T07:32:31;22.90;95.40
14884;DHT22;7534;50.762;7.000;2023-05-07T07:34:58;23.10;95.80
14884;DHT22;7534;50.762;7.000;2023-05-07T07:37:24;23.50;95.40
14884;DHT22;7534;50.762;7.000;2023-05-07T07:39:51;23.90;95.10
14884;DHT22;7534;50.762;7.000;2023-05-07T07:42:16;24.50;93.50
14884;DHT22;7534;50.762;7.000;2023-05-07T07:44:43;25.10;92.50
14884;DHT22;7534;50.762;7.000;2023-05-07T07:47:09;24.90;91.50
14884;DHT22;7534;50.762;7.000;2023-05-07T07:49:35;24.50;92.40
14884;DHT22;7534;50.762;7.000;2023-05-07T07:52:01;24.50;92.50
14884;DHT22;7534;50.762;7.000;2023-05-07T07:54:27;24.30;92.60
14884;DHT22;7534;50.762;7.000;2023-05-07T07:56:53;24.30;92.10
14884;DHT22;7534;50.762;7.000;2023-05-07T07:59:19;23.90;92.50
14884;DHT22;7534;50.762;7.000;2023-05-07T08:01:45;23.40;93.10
14884;DHT22;7534;50.762;7.000;2023-05-07T08:04:13;23.10;94.20
14884;DHT22;7534;50.762;7.000;2023-05-07T08:06:39;23.30;95.00
14884;DHT22;7534;50.762;7.000;2023-05-07T08:09:05;23.20;94.60
14884;DHT22;7534;50.762;7.000;2023-05-07T08:11:30;23.40;93.90
14884;DHT22;7534;50.762;7.000;2023-05-07T08:13:56;23.50;93.40
14884;DHT22;7534;50.762;7.000;2023-05-07T08:16:22;23.80;93.50
14884;DHT22;7534;50.762;7.000;2023-05-07T08:18:48;23.90;93.60
14884;DHT22;7534;50.762;7.000;2023-05-07T08:21:13;24.30;92.80
14884;DHT22;7534;50.762;7.000;2023-05-07T08:23:39;24.50;92.20
14884;DHT22;7534;50.762;7.000;2023-05-07T08:26:05;24.40;91.90
14884;DHT22;7534;50.762;7.000;2023-05-07T08:28:30;24.20;91.80
14884;DHT22;7534;50.762;7.000;2023-05-07T08:30:56;24.30;92.00
14884;DHT22;7534;50.762;7.000;2023-05-07T08:33:25;24.30;92.10
14884;DHT22;7534;50.762;7.000;2023-05-07T08:35:50;24.70;92.50
14884;DHT22;7534;50.762;7.000;2023-05-07T08:38:16;24.90;90.80
14884;DHT22;7534;50.762;7.000;2023-05-07T08:40:42;25.30;91.20
14884;DHT22;7534;50.762;7.000;2023-05-07T08:43:08;26.30;89.70
14884;DHT22;7534;50.762;7.000;2023-05-07T08:45:39;27.30;83.70
14884;DHT22;7534;50.762;7.000;2023-05-07T08:48:10;27.10;82.10
14884;DHT22;7534;50.762;7.000;2023-05-07T08:50:40;27.40;82.60
14884;DHT22;7534;50.762;7.000;2023-05-07T08:53:06;28.20;80.40
14884;DHT22;7534;50.762;7.000;2023-05-07T08:55:32;28.10;80.00
14884;DHT22;7534;50.762;7.000;2023-05-07T08:57:58;28.40;78.80
14884;DHT22;7534;50.762;7.000;2023-05-07T09:00:25;28.00;77.70
14884;DHT22;7534;50.762;7.000;2023-05-07T09:02:52;27.90;78.80
14884;DHT22;7534;50.762;7.000;2023-05-07T09:05:19;28.30;77.50
14884;DHT22;7534;50.762;7.000;2023-05-07T09:07:45;28.50;75.90
14884;DHT22;7534;50.762;7.000;2023-05-07T09:10:12;28.30;76.00
14884;DHT22;7534;50.762;7.000;2023-05-07T09:12:39;29.00;74.30
14884;DHT22;7534;50.762;7.000;2023-05-07T09:15:05;30.20;71.00
14884;DHT22;7534;50.762;7.000;2023-05-07T09:17:32;30.70;68.20
14884;DHT22;7534;50.762;7.000;2023-05-07T09:20:05;31.00;66.40
14884;DHT22;7534;50.762;7.000;2023-05-07T09:22:32;30.80;64.30
14884;DHT22;7534;50.762;7.000;2023-05-07T09:24:59;30.80;65.70
14884;DHT22;7534;50.762;7.000;2023-05-07T09:27:25;30.30;63.50
14884;DHT22;7534;50.762;7.000;2023-05-07T09:29:51;29.60;66.50
14884;DHT22;7534;50.762;7.000;2023-05-07T09:32:17;28.90;68.00
14884;DHT22;7534;50.762;7.000;2023-05-07T09:34:43;28.40;70.00
14884;DHT22;7534;50.762;7.000;2023-05-07T09:37:09;27.60;72.70
14884;DHT22;7534;50.762;7.000;2023-05-07T09:39:41;27.60;73.00
14884;DHT22;7534;50.762;7.000;2023-05-07T09:42:08;27.70;74.50
14884;DHT22;7534;50.762;7.000;2023-05-07T09:44:35;27.20;74.60
14884;DHT22;7534;50.762;7.000;2023-05-07T09:47:04;27.60;74.80
14884;DHT22;7534;50.762;7.000;2023-05-07T09:49:35;27.20;75.20
14884;DHT22;7534;50.762;7.000;2023-05-07T09:52:04;27.50;75.70
14884;DHT22;7534;50.762;7.000;2023-05-07T09:54:32;27.50;76.70
14884;DHT22;7534;50.762;7.000;2023-05-07T09:57:03;27.80;77.50
14884;DHT22;7534;50.762;7.000;2023-05-07T09:59:32;28.90;73.20
14884;DHT22;7534;50.762;7.000;2023-05-07T10:01:59;29.90;68.20
14884;DHT22;7534;50.762;7.000;2023-05-07T10:04:26;29.40;67.80
14884;DHT22;7534;50.762;7.000;2023-05-07T10:06:53;28.60;69.90
14884;DHT22;7534;50.762;7.000;2023-05-07T10:09:21;29.70;67.50
14884;DHT22;7534;50.762;7.000;2023-05-07T10:11:49;30.30;66.00
14884;DHT22;7534;50.762;7.000;2023-05-07T10:14:15;29.40;67.40
14884;DHT22;7534;50.762;7.000;2023-05-07T10:16:42;29.20;67.10
14884;DHT22;7534;50.762;7.000;2023-05-07T10:19:09;29.10;67.60
14884;DHT22;7534;50.762;7.000;2023-05-07T10:21:38;29.20;69.60
14884;DHT22;7534;50.762;7.000;2023-05-07T10:24:09;29.10;67.00
14884;DHT22;7534;50.762;7.000;2023-05-07T10:26:42;29.20;68.80
14884;DHT22;7534;50.762;7.000;2023-05-07T10:29:37;28.70;69.00
14884;DHT22;7534;50.762;7.000;2023-05-07T10:34:45;28.40;68.70
14884;DHT22;7534;50.762;7.000;2023-05-07T10:37:14;28.00;71.70
14884;DHT22;7534;50.762;7.000;2023-05-07T10:39:41;27.40;73.20
14884;DHT22;7534;50.762;7.000;2023-05-07T10:42:11;27.30;72.90
14884;DHT22;7534;50.762;7.000;2023-05-07T10:44:38;27.20;75.50
14884;DHT22;7534;50.762;7.000;2023-05-07T10:47:07;27.30;75.00
14884;DHT22;7534;50.762;7.000;2023-05-07T10:49:36;27.30;77.40
14884;DHT22;7534;50.762;7.000;2023-05-07T10:52:15;27.40;76.60
14884;DHT22;7534;50.762;7.000;2023-05-07T10:54:45;27.50;76.60
14884;DHT22;7534;50.762;7.000;2023-05-07T10:59:56;27.30;76.60
14884;DHT22;7534;50.762;7.000;2023-05-07T11:02:22;27.40;77.40
14884;DHT22;7534;50.762;7.000;2023-05-07T11:05:22;27.40;77.50
14884;DHT22;7534;50.762;7.000;2023-05-07T11:08:14;26.80;78.70
14884;DHT22;7534;50.762;7.000;2023-05-07T11:11:06;27.20;79.40
14884;DHT22;7534;50.762;7.000;2023-05-07T11:13:45;27.10;77.50
14884;DHT22;7534;50.762;7.000;2023-05-07T11:16:21;27.30;78.80
14884;DHT22;7534;50.762;7.000;2023-05-07T11:18:49;27.10;78.20
14884;DHT22;7534;50.762;7.000;2023-05-07T11:21:35;26.40;81.30
14884;DHT22;7534;50.762;7.000;2023-05-07T11:24:07;26.20;83.10
14884;DHT22;7534;50.762;7.000;2023-05-07T11:26:50;26.10;83.90
14884;DHT22;7534;50.762;7.000;2023-05-07T11:29:18;25.80;83.20
14884;DHT22;7534;50.762;7.000;2023-05-07T11:31:50;25.50;84.90
14884;DHT22;7534;50.762;7.000;2023-05-07T11:34:21;25.80;84.20
14884;DHT22;7534;50.762;7.000;2023-05-07T11:36:49;25.90;83.10
14884;DHT22;7534;50.762;7.000;2023-05-07T11:39:44;26.00;84.30
14884;DHT22;7534;50.762;7.000;2023-05-07T11:42:30;26.50;83.00
14884;DHT22;7534;50.762;7.000;2023-05-07T11:44:57;26.30;80.90
14884;DHT22;7534;50.762;7.000;2023-05-07T11:47:23;26.30;81.70
14884;DHT22;7534;50.762;7.000;2023-05-07T11:49:52;26.40;82.20
14884;DHT22;7534;50.762;7.000;2023-05-07T11:52:20;25.90;83.60
14884;DHT22;7534;50.762;7.000;2023-05-07T11:54:55;26.10;83.30
14884;DHT22;7534;50.762;7.000;2023-05-07T11:57:24;25.90;82.60
14884;DHT22;7534;50.762;7.000;2023-05-07T11:59:56;26.20;82.50
14884;DHT22;7534;50.762;7.000;2023-05-07T12:02:24;26.40;81.00
14884;DHT22;7534;50.762;7.000;2023-05-07T12:04:51;26.60;80.80
14884;DHT22;7534;50.762;7.000;2023-05-07T12:07:17;26.60;78.60
14884;DHT22;7534;50.762;7.000;2023-05-07T12:09:44;26.40;79.10
14884;DHT22;7534;50.762;7.000;2023-05-07T12:12:11;26.30;79.40
14884;DHT22;7534;50.762;7.000;2023-05-07T12:14:39;26.30;79.20
14884;DHT22;7534;50.762;7.000;2023-05-07T12:17:10;26.10;80.60
14884;DHT22;7534;50.762;7.000;2023-05-07T12:19:38;26.10;81.80
14884;DHT22;7534;50.762;7.000;2023-05-07T12:22:07;25.80;84.30
14884;DHT22;7534;50.762;7.000;2023-05-07T12:24:50;25.40;88.10
14884;DHT22;7534;50.762;7.000;2023-05-07T12:27:22;24.80;91.40
14884;DHT22;7534;50.762;7.000;2023-05-07T12:29:49;24.20;92.30
14884;DHT22;7534;50.762;7.000;2023-05-07T12:32:20;23.70;94.10
14884;DHT22;7534;50.762;7.000;2023-05-07T12:34:50;23.10;96.10
14884;DHT22;7534;50.762;7.000;2023-05-07T12:37:16;22.80;97.50
14884;DHT22;7534;50.762;7.000;2023-05-07T12:39:50;22.50;99.00
14884;DHT22;7534;50.762;7.000;2023-05-07T12:42:33;22.20;99.90
14884;DHT22;7534;50.762;7.000;2023-05-07T12:45:10;21.90;99.90
14884;DHT22;7534;50.762;7.000;2023-05-07T12:47:37;21.70;99.90
14884;DHT22;7534;50.762;7.000;2023-05-07T12:50:06;21.50;99.90
14884;DHT22;7534;50.762;7.000;2023-05-07T12:52:33;21.40;99.90
14884;DHT22;7534;50.762;7.000;2023-05-07T12:55:05;21.20;99.90
14884;DHT22;7534;50.762;7.000;2023-05-07T12:57:38;21.10;99.90
14884;DHT22;7534;50.762;7.000;2023-05-07T13:00:07;20.90;99.90
14884;DHT22;7534;50.762;7.000;2023-05-07T13:02:34;20.90;99.90
14884;DHT22;7534;50.762;7.000;2023-05-07T13:05:02;20.70;99.90
14884;DHT22;7534;50.762;7.000;2023-05-07T13:07:28;20.70;99.90
14884;DHT22;7534;50.762;7.000;2023-05-07T13:09:54;20.70;99.90
14884;DHT22;7534;50.762;7.000;2023-05-07T13:12:21;20.60;99.90
14884;DHT22;7534;50.762;7.000;2023-05-07T13:14:47;20.60;99.90
14884;DHT22;7534;50.762;7.000;2023-05-07T13:17:13;20.60;99.90
14884;DHT22;7534;50.762;7.000;2023-05-07T13:19:39;20.70;99.90
14884;DHT22;7534;50.762;7.000;2023-05-07T13:22:04;20.70;99.90
14884;DHT22;7534;50.762;7.000;2023-05-07T13:24:30;20.60;99.90
14884;DHT22;7534;50.762;7.000;2023-05-07T13:26:56;20.60;99.90
14884;DHT22;7534;50.762;7.000;2023-05-07T13:29:22;20.60;99.90
14884;DHT22;7534;50.762;7.000;2023-05-07T13:31:54;20.70;99.90
14884;DHT22;7534;50.762;7.000;2023-05-07T13:34:20;20.80;99.90
14884;DHT22;7534;50.762;7.000;2023-05-07T13:36:46;20.80;99.90
14884;DHT22;7534;50.762;7.000;2023-05-07T13:39:12;21.10;99.90
14884;DHT22;7534;50.762;7.000;2023-05-07T13:41:37;21.40;99.90
14884;DHT22;7534;50.762;7.000;2023-05-07T13:44:03;21.80;99.90
14884;DHT22;7534;50.762;7.000;2023-05-07T13:46:30;22.20;99.90
14884;DHT22;7534;50.762;7.000;2023-05-07T13:48:56;22.60;99.90
14884;DHT22;7534;50.762;7.000;2023-05-07T13:51:22;22.70;99.90
14884;DHT22;7534;50.762;7.000;2023-05-07T13:53:48;22.70;99.90
14884;DHT22;7534;50.762;7.000;2023-05-07T13:56:14;22.90;99.90
14884;DHT22;7534;50.762;7.000;2023-05-07T13:58:40;23.00;99.90
14884;DHT22;7534;50.762;7.000;2023-05-07T14:01:06;22.90;99.90
14884;DHT22;7534;50.762;7.000;2023-05-07T14:03:32;22.80;99.90
14884;DHT22;7534;50.762;7.000;2023-05-07T14:05:59;22.50;99.00
14884;DHT22;7534;50.762;7.000;2023-05-07T14:08:27;22.30;99.40
14884;DHT22;7534;50.762;7.000;2023-05-07T14:10:54;22.10;99.50
14884;DHT22;7534;50.762;7.000;2023-05-07T14:13:21;22.00;99.90
14884;DHT22;7534;50.762;7.000;2023-05-07T14:15:47;22.20;99.90
14884;DHT22;7534;50.762;7.000;2023-05-07T14:18:14;22.10;99.90
14884;DHT22;7534;50.762;7.000;2023-05-07T14:20:41;21.90;99.90
14884;DHT22;7534;50.762;7.000;2023-05-07T14:23:11;21.90;99.90
14884;DHT22;7534;50.762;7.000;2023-05-07T14:25:37;21.80;99.90
14884;DHT22;7534;50.762;7.000;2023-05-07T14:28:04;21.80;99.90
14884;DHT22;7534;50.762;7.000;2023-05-07T14:30:30;21.90;99.90
14884;DHT22;7534;50.762;7.000;2023-05-07T14:32:56;22.20;99.90
14884;DHT22;7534;50.762;7.000;2023-05-07T14:35:23;22.20;99.90
14884;DHT22;7534;50.762;7.000;2023-05-07T14:37:48;22.30;99.80
14884;DHT22;7534;50.762;7.000;2023-05-07T14:40:14;22.10;99.90
14884;DHT22;7534;50.762;7.000;2023-05-07T14:42:40;22.10;99.90
14884;DHT22;7534;50.762;7.000;2023-05-07T14:45:06;22.20;99.90
14884;DHT22;7534;50.762;7.000;2023-05-07T14:47:32;22.30;99.90
14884;DHT22;7534;50.762;7.000;2023-05-07T14:49:58;22.40;99.90
14884;DHT22;7534;50.762;7.000;2023-05-07T14:52:26;22.50;99.90
14884;DHT22;7534;50.762;7.000;2023-05-07T14:54:52;22.40;99.80
14884;DHT22;7534;50.762;7.000;2023-05-07T14:57:17;22.30;99.90
14884;DHT22;7534;50.762;7.000;2023-05-07T14:59:44;22.30;99.90
14884;DHT22;7534;50.762;7.000;2023-05-07T15:02:11;22.20;99.90
14884;DHT22;7534;50.762;7.000;2023-05-07T15:04:39;22.10;99.90
14884;DHT22;7534;50.762;7.000;2023-05-07T15:07:14;22.10;99.90
14884;DHT22;7534;50.762;7.000;2023-05-07T15:09:44;22.20;99.90
14884;DHT22;7534;50.762;7.000;2023-05-07T15:12:10;22.30;99.90
14884;DHT22;7534;50.762;7.000;2023-05-07T15:14:37;22.50;99.90
14884;DHT22;7534;50.762;7.000;2023-05-07T15:17:05;22.60;99.90
14884;DHT22;7534;50.762;7.000;2023-05-07T15:19:30;22.60;99.90
14884;DHT22;7534;50.762;7.000;2023-05-07T15:22:00;22.70;99.90
14884;DHT22;7534;50.762;7.000;2023-05-07T15:24:29;22.80;99.90
14884;DHT22;7534;50.762;7.000;2023-05-07T15:26:55;22.60;99.90
14884;DHT22;7534;50.762;7.000;2023-05-07T15:29:21;22.60;99.90
14884;DHT22;7534;50.762;7.000;2023-05-07T15:31:47;22.50;99.90
14884;DHT22;7534;50.762;7.000;2023-05-07T15:34:13;22.40;99.90
14884;DHT22;7534;50.762;7.000;2023-05-07T15:36:42;22.40;99.90
14884;DHT22;7534;50.762;7.000;2023-05-07T15:39:07;22.50;99.90
14884;DHT22;7534;50.762;7.000;2023-05-07T15:41:33;22.70;99.90
14884;DHT22;7534;50.762;7.000;2023-05-07T15:43:59;22.60;99.90
14884;DHT22;7534;50.762;7.000;2023-05-07T15:46:25;22.60;99.90
14884;DHT22;7534;50.762;7.000;2023-05-07T15:48:51;22.80;99.90
14884;DHT22;7534;50.762;7.000;2023-05-07T15:51:18;22.90;99.90
14884;DHT22;7534;50.762;7.000;2023-05-07T15:53:45;22.90;99.30